createdAt,value
2019-02-02T00:01:56.533Z,75.17
2019-02-02T00:04:26.503Z,82.00
2019-02-02T00:06:56.012Z,85.47
2019-02-02T00:09:25.568Z,92.53
2019-02-02T00:11:55.101Z,85.63
2019-02-02T00:14:24.623Z,82.00
2019-02-02T00:16:54.128Z,87.93
2019-02-02T00:19:23.659Z,82.60
2019-02-02T00:21:53.176Z,90.53
2019-02-02T00:24:22.727Z,91.83
2019-02-02T00:26:52.731Z,97.47
2019-02-02T00:29:22.238Z,89.07
2019-02-02T00:31:51.747Z,87.93
2019-02-02T00:34:21.278Z,94.70
2019-02-02T00:36:50.824Z,86.03
2019-02-02T00:39:20.335Z,98.60
2019-02-02T00:41:50.260Z,92.47
2019-02-02T00:44:19.769Z,87.30
2019-02-02T00:46:49.252Z,88.27
2019-02-02T00:49:18.779Z,100.57
2019-02-02T00:52:07.332Z,86.57
2019-02-02T00:54:36.855Z,82.40
2019-02-02T00:57:06.338Z,91.70
2019-02-02T00:59:35.827Z,85.17
2019-02-02T01:02:05.565Z,80.00
2019-02-02T01:04:35.102Z,86.20
2019-02-02T01:07:05.781Z,91.30
2019-02-02T01:09:35.385Z,83.47
2019-02-02T01:12:05.118Z,91.97
2019-02-02T01:14:34.677Z,80.20
2019-02-02T01:17:04.416Z,86.10
2019-02-02T01:19:34.355Z,86.43
2019-02-02T01:22:03.964Z,85.33
2019-02-02T01:24:33.495Z,93.97
2019-02-02T01:27:03.004Z,87.03
2019-02-02T01:29:32.488Z,77.20
2019-02-02T01:32:01.980Z,92.50
2019-02-02T01:34:31.492Z,88.23
2019-02-02T01:37:01.393Z,84.40
2019-02-02T01:39:31.018Z,85.30
2019-02-02T01:42:00.495Z,98.10
2019-02-02T01:44:30.015Z,79.13
2019-02-02T01:46:59.526Z,80.43
2019-02-02T01:49:29.040Z,90.47
2019-02-02T01:51:58.548Z,84.17
2019-02-02T01:54:28.063Z,81.47
2019-02-02T01:56:57.539Z,87.90
2019-02-02T01:59:27.058Z,84.07
2019-02-02T02:01:56.564Z,76.77
2019-02-02T02:04:26.143Z,88.03
2019-02-02T02:06:55.640Z,75.70
2019-02-02T02:09:25.719Z,71.73
2019-02-02T02:11:55.248Z,69.73
2019-02-02T02:14:24.729Z,75.40
2019-02-02T02:16:54.235Z,81.40
2019-02-02T02:19:23.837Z,81.80
2019-02-02T02:21:53.725Z,82.87
2019-02-02T02:24:23.616Z,85.60
2019-02-02T02:26:53.155Z,88.73
2019-02-02T02:29:22.776Z,83.30
2019-02-02T02:31:52.786Z,79.90
2019-02-02T02:34:22.293Z,79.73
2019-02-02T02:36:51.956Z,78.97
2019-02-02T02:39:22.157Z,75.90
2019-02-02T02:41:51.719Z,74.63
2019-02-02T02:44:21.265Z,69.40
2019-02-02T02:46:50.784Z,81.37
2019-02-02T02:49:20.713Z,79.83
2019-02-02T02:51:50.238Z,68.77
2019-02-02T02:54:20.121Z,75.83
2019-02-02T02:56:49.935Z,79.17
2019-02-02T02:59:19.784Z,75.17
2019-02-02T03:01:49.304Z,74.63
2019-02-02T03:04:18.877Z,70.40
2019-02-02T03:06:48.417Z,71.50
2019-02-02T03:09:18.260Z,72.17
2019-02-02T03:11:47.801Z,67.20
2019-02-02T03:14:17.331Z,67.77
2019-02-02T03:16:47.244Z,66.50
2019-02-02T03:19:16.771Z,66.27
2019-02-02T03:21:46.289Z,61.37
2019-02-02T03:24:15.804Z,70.33
2019-02-02T03:26:45.307Z,74.67
2019-02-02T03:29:14.862Z,73.93
2019-02-02T03:31:48.471Z,69.10
2019-02-02T03:34:15.599Z,69.40
2019-02-02T03:36:45.133Z,66.30
2019-02-02T03:39:14.608Z,63.67
2019-02-02T03:41:44.494Z,71.03
2019-02-02T03:44:13.986Z,72.23
2019-02-02T03:46:43.505Z,67.80
2019-02-02T03:49:13.025Z,67.90
2019-02-02T03:51:42.960Z,64.43
2019-02-02T03:54:12.447Z,64.77
2019-02-02T03:56:41.952Z,51.87
2019-02-02T03:59:11.483Z,63.63
2019-02-02T04:01:40.963Z,59.80
2019-02-02T04:04:10.482Z,57.67
2019-02-02T04:06:40.262Z,59.23
2019-02-02T04:09:09.881Z,64.10
2019-02-02T04:11:39.436Z,54.07
2019-02-02T04:14:09.061Z,59.30
2019-02-02T04:16:39.002Z,60.70
2019-02-02T04:19:08.463Z,60.07
2019-02-02T04:21:38.359Z,65.77
2019-02-02T04:24:07.965Z,61.43
2019-02-02T04:26:37.900Z,53.83
2019-02-02T04:29:17.629Z,56.87
2019-02-02T04:31:38.694Z,60.20
2019-02-02T04:34:08.191Z,56.23
2019-02-02T04:36:37.732Z,60.13
2019-02-02T04:39:08.604Z,59.90
2019-02-02T04:41:38.125Z,59.73
2019-02-02T04:44:07.612Z,62.70
2019-02-02T04:46:37.114Z,60.27
2019-02-02T04:49:06.572Z,67.77
2019-02-02T04:51:36.124Z,65.90
2019-02-02T04:54:06.063Z,60.80
2019-02-02T04:56:35.580Z,61.73
2019-02-02T04:59:05.316Z,59.20
2019-02-02T05:01:34.828Z,59.63
2019-02-02T05:04:04.934Z,63.97
2019-02-02T05:06:34.517Z,69.60
2019-02-02T05:09:05.476Z,64.93
2019-02-02T05:11:35.009Z,66.00
2019-02-02T05:14:04.655Z,65.13
2019-02-02T05:16:34.607Z,60.80
2019-02-02T05:19:04.402Z,73.10
2019-02-02T05:21:33.965Z,74.87
2019-02-02T05:24:03.528Z,59.67
2019-02-02T05:26:33.038Z,76.37
2019-02-02T05:29:02.559Z,65.33
2019-02-02T05:31:32.088Z,68.13
2019-02-02T05:34:01.576Z,67.13
2019-02-02T05:36:31.111Z,72.27
2019-02-02T05:39:00.616Z,66.27
2019-02-02T05:41:30.139Z,71.70
2019-02-02T05:44:00.363Z,74.73
2019-02-02T05:46:30.271Z,63.93
2019-02-02T05:48:59.891Z,64.83
2019-02-02T05:51:29.413Z,66.13
2019-02-02T05:53:59.084Z,64.50
2019-02-02T05:56:29.236Z,64.70
2019-02-02T05:58:58.741Z,75.23
2019-02-02T06:01:30.096Z,61.90
2019-02-02T06:03:59.430Z,73.50
2019-02-02T06:06:29.333Z,66.30
2019-02-02T06:08:59.934Z,78.67
2019-02-02T06:11:30.036Z,71.13
2019-02-02T06:13:59.869Z,87.13
2019-02-02T06:16:29.647Z,72.70
2019-02-02T06:18:59.169Z,74.37
2019-02-02T06:21:28.914Z,85.77
2019-02-02T06:23:58.874Z,79.80
2019-02-02T06:26:28.493Z,86.13
2019-02-02T06:28:57.997Z,81.13
2019-02-02T06:31:27.541Z,84.77
2019-02-02T06:33:57.108Z,83.43
2019-02-02T06:36:26.636Z,89.63
2019-02-02T06:38:56.284Z,75.57
2019-02-02T06:41:25.783Z,87.47
2019-02-02T06:43:55.298Z,93.23
2019-02-02T06:46:24.829Z,90.87
2019-02-02T06:48:54.291Z,93.20
2019-02-02T06:51:23.811Z,100.33
2019-02-02T06:53:53.348Z,102.77
2019-02-02T06:56:23.294Z,96.50
2019-02-02T06:58:53.897Z,108.10
2019-02-02T07:01:23.724Z,98.77
2019-02-02T07:03:54.013Z,94.87
2019-02-02T07:06:23.992Z,87.97
2019-02-02T07:08:53.864Z,96.77
2019-02-02T07:11:23.390Z,96.77
2019-02-02T07:13:52.898Z,102.20
2019-02-02T07:16:22.446Z,96.07
2019-02-02T07:18:52.079Z,95.57
2019-02-02T07:21:21.969Z,111.67
2019-02-02T07:23:51.478Z,100.37
2019-02-02T07:26:21.009Z,104.27
2019-02-02T07:28:50.525Z,118.57
2019-02-02T07:31:20.069Z,119.10
2019-02-02T07:33:49.621Z,112.97
2019-02-02T07:36:19.165Z,128.60
2019-02-02T07:38:49.029Z,123.00
2019-02-02T07:41:18.994Z,116.30
2019-02-02T07:43:48.532Z,128.77
2019-02-02T07:46:18.062Z,131.23
2019-02-02T07:48:47.931Z,130.97
2019-02-02T07:51:17.430Z,135.43
2019-02-02T07:53:46.967Z,139.97
2019-02-02T07:56:17.040Z,153.83
2019-02-02T07:58:46.667Z,137.30
2019-02-02T08:01:16.596Z,140.03
2019-02-02T08:03:46.143Z,147.90
2019-02-02T08:06:16.077Z,141.63
2019-02-02T08:08:45.597Z,131.23
2019-02-02T08:11:15.130Z,147.37
2019-02-02T08:13:44.631Z,159.63
2019-02-02T08:16:14.146Z,147.87
2019-02-02T08:18:43.690Z,143.93
2019-02-02T08:21:13.225Z,142.50
2019-02-02T08:23:42.769Z,145.90
2019-02-02T08:26:12.282Z,150.07
2019-02-02T08:28:41.807Z,130.90
2019-02-02T08:31:11.456Z,144.50
2019-02-02T08:33:41.012Z,136.43
2019-02-02T08:36:10.557Z,135.40
2019-02-02T08:38:40.237Z,137.33
2019-02-02T08:41:09.742Z,140.10
2019-02-02T08:43:39.264Z,137.70
2019-02-02T08:46:08.805Z,139.97
2019-02-02T08:48:38.312Z,128.27
2019-02-02T08:51:08.236Z,136.93
2019-02-02T08:53:37.748Z,141.93
2019-02-02T08:56:07.405Z,124.23
2019-02-02T08:58:36.965Z,111.07
2019-02-02T09:01:06.481Z,117.57
2019-02-02T09:03:36.045Z,119.70
2019-02-02T09:06:05.926Z,106.20
2019-02-02T09:08:35.727Z,121.33
2019-02-02T09:11:05.325Z,123.53
2019-02-02T09:13:36.763Z,119.10
2019-02-02T09:16:05.965Z,116.53
2019-02-02T09:18:35.919Z,126.50
2019-02-02T09:21:05.875Z,123.03
2019-02-02T09:23:35.505Z,117.83
2019-02-02T09:26:05.024Z,128.77
2019-02-02T09:28:34.559Z,133.70
2019-02-02T09:31:15.201Z,125.47
2019-02-02T09:33:36.030Z,122.00
2019-02-02T09:36:05.790Z,123.03
2019-02-02T09:38:35.296Z,129.23
2019-02-02T09:41:04.802Z,132.57
2019-02-02T09:43:34.332Z,129.87
2019-02-02T09:46:04.798Z,135.67
2019-02-02T09:48:34.382Z,132.47
2019-02-02T09:51:04.026Z,126.10
2019-02-02T09:53:33.895Z,122.30
2019-02-02T09:56:03.462Z,132.27
2019-02-02T09:58:33.092Z,117.50
2019-02-02T10:01:02.667Z,136.13
2019-02-02T10:03:32.140Z,119.17
2019-02-02T10:06:01.641Z,131.53
2019-02-02T10:08:31.200Z,111.37
2019-02-02T10:11:00.688Z,116.00
2019-02-02T10:13:30.185Z,135.23
2019-02-02T10:15:59.725Z,116.87
2019-02-02T10:18:29.570Z,117.77
2019-02-02T10:21:04.002Z,109.47
2019-02-02T10:23:30.375Z,120.47
2019-02-02T10:26:00.635Z,135.23
2019-02-02T10:28:30.166Z,125.03
2019-02-02T10:30:59.695Z,126.23
2019-02-02T10:33:29.256Z,116.30
2019-02-02T10:35:58.891Z,119.30
2019-02-02T10:38:28.352Z,104.07
2019-02-02T10:40:57.894Z,122.67
2019-02-02T10:43:27.412Z,116.67
2019-02-02T10:45:56.895Z,116.20
2019-02-02T10:48:26.708Z,119.33
2019-02-02T10:51:02.247Z,115.73
2019-02-02T10:53:32.210Z,113.73
2019-02-02T10:56:07.738Z,116.10
2019-02-02T10:58:37.911Z,116.37
2019-02-02T11:01:09.464Z,101.10
2019-02-02T11:03:39.049Z,114.00
2019-02-02T11:06:09.209Z,114.20
2019-02-02T11:08:39.156Z,116.63
2019-02-02T11:11:10.375Z,114.53
2019-02-02T11:13:39.978Z,107.53
2019-02-02T11:16:10.082Z,118.33
2019-02-02T11:18:40.117Z,112.63
2019-02-02T11:21:09.729Z,125.63
2019-02-02T11:23:39.298Z,121.17
2019-02-02T11:26:08.959Z,128.97
2019-02-02T11:28:38.551Z,129.77
2019-02-02T11:31:08.439Z,125.30
2019-02-02T11:33:38.372Z,120.77
2019-02-02T11:36:08.029Z,116.60
2019-02-02T11:38:38.328Z,108.47
2019-02-02T11:41:07.854Z,124.67
2019-02-02T11:43:37.378Z,114.63
2019-02-02T11:46:07.149Z,124.33
2019-02-02T11:48:36.638Z,127.23
2019-02-02T11:51:06.163Z,130.10
2019-02-02T11:53:37.512Z,117.93
2019-02-02T11:56:06.840Z,117.97
2019-02-02T11:58:36.471Z,113.00
2019-02-02T12:01:06.397Z,106.20
2019-02-02T12:03:36.248Z,116.13
2019-02-02T12:06:06.081Z,112.80
2019-02-02T12:08:35.613Z,126.13
2019-02-02T12:11:05.183Z,117.93
2019-02-02T12:13:34.728Z,126.83
2019-02-02T12:16:04.240Z,128.30
2019-02-02T12:18:33.753Z,115.93
2019-02-02T12:21:03.372Z,125.17
2019-02-02T12:23:32.967Z,119.63
2019-02-02T12:26:02.614Z,124.57
2019-02-02T12:28:32.249Z,113.93
2019-02-02T12:31:02.072Z,117.03
2019-02-02T12:33:31.912Z,108.53
2019-02-02T12:36:01.479Z,108.23
2019-02-02T12:38:31.047Z,131.50
2019-02-02T12:41:00.538Z,138.10
2019-02-02T12:43:30.225Z,121.93
2019-02-02T12:45:59.756Z,134.90
2019-02-02T12:48:32.184Z,133.50
2019-02-02T12:51:00.461Z,125.90
2019-02-02T12:53:29.926Z,136.20
2019-02-02T12:55:59.895Z,137.83
2019-02-02T12:58:29.484Z,132.80
2019-02-02T13:00:58.986Z,117.10
2019-02-02T13:03:28.532Z,134.63
2019-02-02T13:05:58.074Z,125.07
2019-02-02T13:08:27.944Z,122.20
2019-02-02T13:10:57.982Z,124.77
2019-02-02T13:13:28.317Z,135.00
2019-02-02T13:15:58.212Z,130.23
2019-02-02T13:18:27.757Z,112.30
2019-02-02T13:20:57.242Z,115.37
2019-02-02T13:23:27.224Z,129.00
2019-02-02T13:26:05.039Z,116.90
2019-02-02T13:28:28.644Z,118.50
2019-02-02T13:30:58.592Z,117.87
2019-02-02T13:33:28.052Z,118.93
2019-02-02T13:35:57.619Z,114.83
2019-02-02T13:38:27.191Z,112.33
2019-02-02T13:40:56.664Z,121.37
2019-02-02T13:43:26.186Z,108.83
2019-02-02T13:45:56.084Z,119.50
2019-02-02T13:48:25.648Z,108.73
2019-02-02T13:50:55.146Z,113.47
2019-02-02T13:53:25.988Z,118.67
2019-02-02T13:55:55.594Z,120.33
2019-02-02T13:58:25.259Z,114.20
2019-02-02T14:00:55.147Z,118.40
2019-02-02T14:03:24.656Z,118.80
2019-02-02T14:05:54.401Z,110.33
2019-02-02T14:08:24.289Z,120.47
2019-02-02T14:10:54.190Z,119.37
2019-02-02T14:13:23.675Z,118.87
2019-02-02T14:15:53.355Z,119.93
2019-02-02T14:18:22.881Z,128.77
2019-02-02T14:20:52.461Z,118.83
2019-02-02T14:23:22.417Z,119.77
2019-02-02T14:25:52.014Z,121.80
2019-02-02T14:28:28.537Z,113.87
2019-02-02T14:30:53.769Z,115.13
2019-02-02T14:33:23.548Z,114.33
2019-02-02T14:35:53.555Z,116.47
2019-02-02T14:38:23.080Z,111.23
2019-02-02T14:40:52.782Z,109.30
2019-02-02T14:43:22.696Z,105.00
2019-02-02T14:45:52.979Z,121.70
2019-02-02T14:48:22.468Z,128.40
2019-02-02T14:50:52.061Z,123.80
2019-02-02T14:53:21.527Z,117.07
2019-02-02T14:55:51.785Z,121.30
2019-02-02T14:58:21.662Z,123.53
2019-02-02T15:00:53.853Z,121.20
2019-02-02T15:03:25.824Z,128.67
2019-02-02T15:05:53.802Z,137.93
2019-02-02T15:08:23.918Z,143.47
2019-02-02T15:10:53.388Z,136.87
2019-02-02T15:13:23.191Z,147.87
2019-02-02T15:15:53.078Z,131.70
2019-02-02T15:18:22.640Z,132.07
2019-02-02T15:20:52.463Z,141.20
2019-02-02T15:23:22.747Z,136.63
2019-02-02T15:25:53.289Z,135.97
2019-02-02T15:28:22.848Z,137.37
2019-02-02T15:30:54.135Z,130.30
2019-02-02T15:33:24.405Z,132.70
2019-02-02T15:35:53.925Z,130.33
2019-02-02T15:38:23.903Z,117.13
2019-02-02T15:40:59.352Z,137.70
2019-02-02T15:43:24.875Z,129.17
2019-02-02T15:45:54.405Z,128.43
2019-02-02T15:48:23.979Z,117.57
2019-02-02T15:50:54.136Z,113.47
2019-02-02T15:53:23.680Z,117.07
2019-02-02T15:55:53.640Z,124.60
2019-02-02T15:58:23.516Z,108.20
2019-02-02T16:00:53.063Z,114.70
2019-02-02T16:03:22.608Z,110.53
2019-02-02T16:05:52.296Z,116.13
2019-02-02T16:08:21.817Z,115.80
2019-02-02T16:10:51.305Z,115.67
2019-02-02T16:13:20.825Z,110.37
2019-02-02T16:15:50.753Z,123.23
2019-02-02T16:18:20.846Z,122.00
2019-02-02T16:20:50.360Z,123.20
2019-02-02T16:23:19.853Z,128.07
2019-02-02T16:25:49.423Z,133.37
2019-02-02T16:28:19.267Z,142.80
2019-02-02T16:30:48.787Z,132.57
2019-02-02T16:33:18.757Z,157.10
2019-02-02T16:35:48.251Z,139.00
2019-02-02T16:38:17.739Z,150.43
2019-02-02T16:40:47.295Z,149.40
2019-02-02T16:43:17.732Z,162.97
2019-02-02T16:45:47.673Z,163.80
2019-02-02T16:48:17.348Z,160.13
2019-02-02T16:50:46.842Z,166.73
2019-02-02T16:53:16.353Z,170.90
2019-02-02T16:55:45.848Z,198.57
2019-02-02T16:58:15.338Z,189.70
2019-02-02T17:00:45.692Z,221.37
2019-02-02T17:03:15.311Z,192.33
2019-02-02T17:05:44.813Z,231.03
2019-02-02T17:08:14.732Z,210.13
2019-02-02T17:10:44.303Z,220.77
2019-02-02T17:13:14.158Z,205.63
2019-02-02T17:15:44.051Z,270.63
2019-02-02T17:18:13.535Z,229.50
2019-02-02T17:20:44.899Z,232.70
2019-02-02T17:23:14.501Z,199.87
2019-02-02T17:25:44.062Z,214.53
2019-02-02T17:28:13.610Z,214.07
2019-02-02T17:30:43.146Z,225.33
2019-02-02T17:33:15.161Z,237.70
2019-02-02T17:35:45.435Z,202.93
2019-02-02T17:38:14.951Z,221.57
2019-02-02T17:40:44.799Z,240.00
2019-02-02T17:43:14.288Z,238.57
2019-02-02T17:45:43.847Z,226.80
2019-02-02T17:48:13.760Z,214.83
2019-02-02T17:50:43.367Z,235.00
2019-02-02T17:53:12.901Z,213.77
2019-02-02T17:55:42.484Z,247.20
2019-02-02T17:58:13.511Z,222.13
2019-02-02T18:00:48.020Z,215.87
2019-02-02T18:03:17.551Z,200.83
2019-02-02T18:05:47.754Z,217.43
2019-02-02T18:08:17.696Z,237.10
2019-02-02T18:10:47.593Z,228.03
2019-02-02T18:13:17.641Z,239.23
2019-02-02T18:15:48.601Z,242.87
2019-02-02T18:18:18.426Z,232.43
2019-02-02T18:20:47.923Z,214.70
2019-02-02T18:23:18.420Z,235.83
2019-02-02T18:25:48.617Z,231.73
2019-02-02T18:28:18.964Z,221.33
2019-02-02T18:30:48.469Z,258.40
2019-02-02T18:33:17.956Z,223.83
2019-02-02T18:35:47.495Z,229.83
2019-02-02T18:38:16.982Z,226.67
2019-02-02T18:40:46.563Z,212.23
2019-02-02T18:43:16.037Z,215.47
2019-02-02T18:45:45.557Z,210.23
2019-02-02T18:48:15.250Z,215.20
2019-02-02T18:50:44.745Z,220.97
2019-02-02T18:53:14.523Z,244.63
2019-02-02T18:56:04.765Z,212.83
2019-02-02T18:58:37.084Z,205.00
2019-02-02T19:01:06.984Z,234.20
2019-02-02T19:03:36.498Z,215.43
2019-02-02T19:06:06.259Z,236.17
2019-02-02T19:08:35.764Z,224.47
2019-02-02T19:11:06.087Z,248.73
2019-02-02T19:13:35.589Z,243.80
2019-02-02T19:16:05.847Z,213.47
2019-02-02T19:18:35.773Z,236.87
2019-02-02T19:21:06.132Z,234.93
2019-02-02T19:23:35.650Z,239.17
2019-02-02T19:26:05.501Z,226.17
2019-02-02T19:28:40.117Z,247.97
2019-02-02T19:31:06.154Z,247.40
2019-02-02T19:33:35.655Z,209.37
2019-02-02T19:36:05.194Z,223.10
2019-02-02T19:38:34.848Z,238.03
2019-02-02T19:41:05.239Z,245.20
2019-02-02T19:43:34.770Z,235.40
2019-02-02T19:46:04.673Z,229.90
2019-02-02T19:48:34.932Z,229.30
2019-02-02T19:51:04.463Z,231.93
2019-02-02T19:53:34.078Z,259.43
2019-02-02T19:56:03.602Z,257.43
2019-02-02T19:58:33.454Z,229.30
2019-02-02T20:01:02.975Z,252.33
2019-02-02T20:03:32.486Z,260.07
2019-02-02T20:06:02.012Z,248.40
2019-02-02T20:08:31.560Z,253.80
2019-02-02T20:11:01.433Z,249.80
2019-02-02T20:13:31.457Z,236.67
2019-02-02T20:16:03.929Z,241.03
2019-02-02T20:18:32.094Z,256.93
2019-02-02T20:21:01.938Z,245.57
2019-02-02T20:23:31.446Z,237.07
2019-02-02T20:26:01.032Z,250.93
2019-02-02T20:28:30.533Z,263.00
2019-02-02T20:31:00.039Z,248.93
2019-02-02T20:33:29.556Z,278.17
2019-02-02T20:35:59.699Z,272.67
2019-02-02T20:38:29.395Z,286.57
2019-02-02T20:40:59.903Z,261.63
2019-02-02T20:43:29.446Z,259.43
2019-02-02T20:45:58.992Z,288.07
2019-02-02T20:48:28.649Z,244.43
2019-02-02T20:50:58.162Z,259.80
2019-02-02T20:53:27.648Z,253.80
2019-02-02T20:55:57.232Z,231.77
2019-02-02T20:58:26.718Z,264.70
2019-02-02T21:00:56.241Z,242.43
2019-02-02T21:03:25.759Z,251.30
2019-02-02T21:05:55.260Z,246.77
2019-02-02T21:08:24.768Z,254.13
2019-02-02T21:10:54.268Z,234.40
2019-02-02T21:13:23.778Z,247.10
2019-02-02T21:15:56.225Z,207.90
2019-02-02T21:18:25.774Z,226.13
2019-02-02T21:20:57.729Z,215.17
2019-02-02T21:23:27.229Z,237.70
2019-02-02T21:25:56.797Z,269.93
2019-02-02T21:28:26.412Z,236.47
2019-02-02T21:30:55.979Z,267.43
2019-02-02T21:33:25.575Z,246.83
2019-02-02T21:36:03.642Z,259.50
2019-02-02T21:38:26.580Z,256.17
2019-02-02T21:40:56.323Z,238.77
2019-02-02T21:43:25.861Z,254.13
2019-02-02T21:45:55.369Z,256.10
2019-02-02T21:48:24.877Z,244.80
2019-02-02T21:50:54.393Z,243.37
2019-02-02T21:53:23.950Z,261.70
2019-02-02T21:55:53.709Z,265.80
2019-02-02T21:58:23.616Z,251.60
2019-02-02T22:00:53.142Z,273.20
2019-02-02T22:03:22.652Z,270.00
2019-02-02T22:05:52.175Z,297.50
2019-02-02T22:08:21.993Z,298.83
2019-02-02T22:10:51.701Z,287.17
2019-02-02T22:13:21.229Z,288.70
2019-02-02T22:15:51.229Z,270.97
2019-02-02T22:18:21.803Z,272.03
2019-02-02T22:20:51.778Z,261.13
2019-02-02T22:23:21.344Z,253.90
2019-02-02T22:25:50.868Z,257.93
2019-02-02T22:28:20.537Z,235.13
2019-02-02T22:30:50.110Z,254.47
2019-02-02T22:33:19.648Z,258.13
2019-02-02T22:35:49.328Z,240.20
2019-02-02T22:38:18.835Z,261.97
2019-02-02T22:40:48.390Z,259.53
2019-02-02T22:43:17.906Z,249.60
2019-02-02T22:45:47.813Z,232.93
2019-02-02T22:48:17.369Z,240.27
2019-02-02T22:50:46.869Z,254.80
2019-02-02T22:53:16.832Z,239.17
2019-02-02T22:55:46.362Z,253.30
2019-02-02T22:58:15.929Z,265.07
2019-02-02T23:01:06.839Z,230.83
2019-02-02T23:03:39.691Z,218.10
2019-02-02T23:06:39.610Z,228.83
2019-02-02T23:09:43.912Z,237.70
2019-02-02T23:12:31.625Z,237.57
2019-02-02T23:15:29.169Z,211.27
2019-02-02T23:17:58.978Z,225.23
2019-02-02T23:20:28.554Z,213.60
2019-02-02T23:22:58.089Z,214.13
2019-02-02T23:25:27.625Z,217.43
2019-02-02T23:27:57.597Z,215.57
2019-02-02T23:30:27.451Z,200.67
2019-02-02T23:32:57.069Z,193.80
2019-02-02T23:35:26.597Z,225.50
2019-02-02T23:37:56.127Z,222.37
2019-02-02T23:40:25.712Z,199.13
2019-02-02T23:42:55.331Z,205.23
2019-02-02T23:45:24.862Z,210.30
2019-02-02T23:47:54.388Z,205.17
2019-02-02T23:50:23.952Z,209.93
2019-02-02T23:52:53.834Z,199.83
2019-02-02T23:55:23.586Z,205.50
2019-02-02T23:57:53.108Z,193.17
